Time;durP1;ratioP1;P1;durP2;ratioP2;P2;SDS_P1;SDS_P2;PMS_P1;PMS_P2;Temp;Humidity;BMP_temperature;BMP_pressure;BME280_temperature;BME280_humidity;BME280_pressure;Samples;Min_cycle;Max_cycle;Signal;HPM_P1;HPM_P2
2023/10/09 00:02:09;;;;;;;10.15;4.43;;;;;;;19.19;88.37;101766.88;7354796;19;20022;-65
2023/10/09 00:04:41;;;;;;;8.93;4.32;;;;;;;19.19;88.11;101776.72;7350347;19;20483;-65
2023/10/09 00:07:10;;;;;;;10.20;4.72;;;;;;;19.19;88.29;101776.72;7356009;19;20701;-65
2023/10/09 00:12:22;;;;;;;6.90;4.10;;;;;;;19.17;88.20;101782.25;7353084;19;20015;-65
2023/10/09 00:14:55;;;;;;;11.02;4.63;;;;;;;19.18;88.37;101778.56;7350553;19;20011;-65
2023/10/09 00:17:23;;;;;;;10.52;4.55;;;;;;;19.18;88.38;101783.91;7354002;19;20025;-65
2023/10/09 00:19:52;;;;;;;11.52;4.90;;;;;;;19.19;88.64;101779.41;7355721;19;20050;-64
2023/10/09 00:22:29;;;;;;;11.10;4.75;;;;;;;19.18;88.54;101775.06;7355255;19;20019;-66
2023/10/09 00:27:36;;;;;;;11.50;5.25;;;;;;;19.15;88.71;101776.25;7355602;19;20487;-66
2023/10/09 00:30:06;;;;;;;10.15;4.97;;;;;;;19.16;88.81;101769.91;7355426;19;20642;-66
2023/10/09 00:32:33;;;;;;;10.68;5.45;;;;;;;19.15;89.17;101768.25;7353570;19;20022;-66
2023/10/09 00:35:36;;;;;;;9.02;4.75;;;;;;;19.15;88.45;101768.25;7355142;19;20011;-66
2023/10/09 00:37:51;;;;;;;10.38;4.55;;;;;;;19.11;88.33;101761.63;7353828;19;20019;-65
2023/10/09 00:40:27;;;;;;;9.13;4.45;;;;;;;19.11;88.79;101756.28;7354762;19;20011;-65
2023/10/09 00:42:55;;;;;;;11.48;4.68;;;;;;;19.08;88.48;101756.69;7355402;19;21700;-65
2023/10/09 00:45:26;;;;;;;9.02;4.25;;;;;;;19.06;88.75;101757.84;7352493;19;20022;-65
2023/10/09 00:47:58;;;;;;;9.70;4.50;;;;;;;19.06;88.99;101760.53;7354769;19;20058;-66
2023/10/09 00:50:26;;;;;;;13.30;4.90;;;;;;;19.05;88.78;101749.03;7355954;19;20014;-66
2023/10/09 00:58:15;;;;;;;11.85;4.72;;;;;;;18.99;88.94;101762.31;7353835;19;20495;-66
2023/10/09 01:08:32;;;;;;;9.48;4.82;;;;;;;18.86;89.69;101762.94;7355291;19;20018;-65
2023/10/09 01:11:09;;;;;;;13.35;5.00;;;;;;;18.85;89.66;101760.44;7353884;19;20014;-65
2023/10/09 01:13:41;;;;;;;12.75;4.93;;;;;;;18.83;89.96;101763.31;7349865;19;20026;-64
2023/10/09 01:16:15;;;;;;;10.90;5.03;;;;;;;18.79;89.70;101770.03;7357141;19;20014;-65
2023/10/09 01:18:45;;;;;;;8.82;4.80;;;;;;;18.73;89.75;101765.44;7360860;19;20134;-66
2023/10/09 01:21:14;;;;;;;10.07;5.13;;;;;;;18.68;90.38;101773.13;7360476;19;20464;-65
2023/10/09 01:24:02;;;;;;;10.52;5.35;;;;;;;18.64;90.63;101778.00;7354850;19;20019;-66
2023/10/09 01:29:14;;;;;;;12.68;4.97;;;;;;;18.59;91.27;101761.72;7354129;19;20502;-66
2023/10/09 01:31:50;;;;;;;10.45;5.05;;;;;;;18.59;91.15;101753.72;7360977;19;20018;-66
2023/10/09 01:34:23;;;;;;;12.70;5.43;;;;;;;18.55;91.23;101751.59;7357822;19;20406;-66
2023/10/09 01:36:55;;;;;;;8.52;5.07;;;;;;;18.54;91.93;101748.09;7357683;19;20010;-65
2023/10/09 01:39:23;;;;;;;9.00;4.88;;;;;;;18.52;91.67;101742.09;7359079;19;20675;-65
2023/10/09 01:41:58;;;;;;;9.02;4.82;;;;;;;18.50;91.76;101752.13;7359012;19;20022;-65
2023/10/09 01:44:34;;;;;;;12.93;5.05;;;;;;;18.49;91.85;101744.31;7359709;19;20010;-65
2023/10/09 01:47:07;;;;;;;10.48;4.85;;;;;;;18.47;91.56;101747.16;7362062;19;20624;-64
2023/10/09 01:49:37;;;;;;;10.77;5.95;;;;;;;18.49;92.59;101750.44;7356828;19;20014;-64
2023/10/09 01:54:48;;;;;;;7.28;4.47;;;;;;;18.52;91.79;101746.59;7360068;19;20533;-65
2023/10/09 01:57:22;;;;;;;10.85;4.88;;;;;;;18.52;91.55;101743.94;7357838;19;20018;-63
2023/10/09 01:59:53;;;;;;;11.20;4.82;;;;;;;18.51;91.76;101737.78;7357145;19;20022;-65
2023/10/09 02:07:44;;;;;;;9.00;5.35;;;;;;;18.46;92.05;101728.66;7360384;19;20546;-65
2023/10/09 02:12:57;;;;;;;9.10;4.82;;;;;;;18.42;91.88;101722.88;7356625;19;20055;-67
2023/10/09 02:18:17;;;;;;;10.90;4.82;;;;;;;18.41;92.17;101721.22;7356994;19;20025;-65
2023/10/09 02:20:45;;;;;;;9.50;4.75;;;;;;;18.39;91.71;101724.06;7360324;19;20014;-66
2023/10/09 02:23:15;;;;;;;10.40;4.45;;;;;;;18.37;91.71;101718.09;7359370;19;20006;-65
2023/10/09 02:25:53;;;;;;;9.48;4.68;;;;;;;18.37;91.95;101714.59;7354713;19;20022;-64
2023/10/09 02:28:20;;;;;;;10.77;4.32;;;;;;;18.37;91.78;101718.09;7357241;19;20110;-65
2023/10/09 02:30:48;;;;;;;10.18;4.55;;;;;;;18.37;91.73;101711.94;7355123;19;20010;-65
2023/10/09 02:33:27;;;;;;;8.73;4.32;;;;;;;18.37;91.36;101703.94;7357751;19;20357;-65
2023/10/09 02:35:55;;;;;;;8.88;4.35;;;;;;;18.34;91.30;101701.63;7355660;19;20018;-65
2023/10/09 02:38:23;;;;;;;9.30;4.47;;;;;;;18.33;91.44;101698.16;7357069;19;20006;-65
2023/10/09 02:43:34;;;;;;;11.93;4.38;;;;;;;18.32;91.22;101698.34;7357349;19;20493;-66
2023/10/09 02:48:42;;;;;;;7.82;3.90;;;;;;;18.30;91.09;101697.69;7356530;19;20022;-66
2023/10/09 02:51:32;;;;;;;10.00;4.07;;;;;;;18.28;91.45;101697.06;7359399;19;20455;-66
2023/10/09 02:54:07;;;;;;;9.40;5.70;;;;;;;18.29;91.95;101696.00;7355074;19;20019;-66
2023/10/09 02:56:37;;;;;;;12.25;4.43;;;;;;;18.28;91.91;101695.22;7354592;19;20019;-66
2023/10/09 02:59:06;;;;;;;10.05;5.03;;;;;;;18.26;91.09;101693.72;7357232;19;20011;-66
2023/10/09 03:01:37;;;;;;;8.68;4.07;;;;;;;18.25;91.02;101700.06;7355881;19;20018;-66
2023/10/09 03:04:05;;;;;;;9.77;4.05;;;;;;;18.24;90.56;101693.91;7354413;19;20007;-64
2023/10/09 03:06:43;;;;;;;8.48;3.53;;;;;;;18.23;90.66;101691.44;7356721;19;20015;-65
2023/10/09 03:11:53;;;;;;;7.55;3.88;;;;;;;18.17;90.50;101684.16;7357187;19;20021;-65
2023/10/09 03:14:23;;;;;;;9.93;4.45;;;;;;;18.18;90.60;101681.31;7353535;19;20093;-65
2023/10/09 03:16:52;;;;;;;7.13;4.38;;;;;;;18.15;89.98;101671.00;7354737;19;20025;-66
2023/10/09 03:19:20;;;;;;;9.93;3.78;;;;;;;18.13;89.94;101672.22;7355644;19;20017;-65
2023/10/09 03:21:47;;;;;;;7.88;4.40;;;;;;;18.09;90.03;101677.06;7357631;19;20010;-65
2023/10/09 03:24:15;;;;;;;12.60;3.92;;;;;;;18.10;90.04;101670.72;7356392;19;20014;-65
2023/10/09 03:26:44;;;;;;;10.80;4.35;;;;;;;18.09;89.87;101669.06;7354528;19;20454;-65
2023/10/09 03:29:12;;;;;;;10.30;4.95;;;;;;;18.09;91.23;101666.41;7352804;19;20019;-64
2023/10/09 03:31:41;;;;;;;8.82;4.32;;;;;;;18.09;91.18;101674.41;7356604;19;20275;-65
2023/10/09 03:34:10;;;;;;;8.80;4.32;;;;;;;18.09;90.24;101663.75;7352707;19;20030;-67
2023/10/09 03:36:39;;;;;;;10.70;4.05;;;;;;;18.07;89.94;101665.78;7356244;19;20021;-65
2023/10/09 03:39:23;;;;;;;9.73;3.92;;;;;;;18.07;89.89;101667.59;7354122;19;20018;-65
2023/10/09 03:41:54;;;;;;;11.70;4.25;;;;;;;18.05;89.63;101667.78;7355382;19;20032;-65
2023/10/09 03:44:22;;;;;;;8.60;3.88;;;;;;;18.04;89.62;101670.63;7351138;19;20030;-65
2023/10/09 03:46:51;;;;;;;9.20;3.90;;;;;;;18.03;89.71;101663.66;7354750;19;20522;-65
2023/10/09 03:49:23;;;;;;;7.90;3.95;;;;;;;18.03;89.91;101669.00;7355619;19;20405;-66
2023/10/09 03:51:50;;;;;;;8.63;4.05;;;;;;;18.03;89.98;101663.66;7356870;19;20014;-65
2023/10/09 03:54:20;;;;;;;8.95;3.85;;;;;;;18.04;89.65;101678.59;7355416;19;20038;-64
2023/10/09 03:56:49;;;;;;;6.93;3.80;;;;;;;18.01;89.39;101674.47;7353603;19;20325;-65
2023/10/09 03:59:21;;;;;;;9.25;4.35;;;;;;;17.99;89.92;101673.00;7351179;19;20026;-65
2023/10/09 04:01:50;;;;;;;9.77;4.10;;;;;;;17.98;89.84;101684.69;7355293;19;20109;-65
2023/10/09 04:04:22;;;;;;;9.80;4.32;;;;;;;17.95;90.02;101683.19;7356049;19;20034;-65
2023/10/09 04:06:51;;;;;;;7.97;4.07;;;;;;;17.96;89.79;101682.19;7353211;19;20399;-65
2023/10/09 04:11:49;;;;;;;10.65;4.45;;;;;;;17.94;89.58;101674.38;7352198;19;21595;-65
2023/10/09 04:19:38;;;;;;;7.63;4.18;;;;;;;17.92;89.79;101689.72;7354391;19;20649;-67
2023/10/09 04:22:09;;;;;;;8.23;4.20;;;;;;;17.88;89.36;101698.22;7352732;19;20026;-67
2023/10/09 04:24:41;;;;;;;8.52;4.05;;;;;;;17.86;89.48;101689.59;7354282;19;20015;-65
2023/10/09 04:27:08;;;;;;;9.00;4.30;;;;;;;17.83;89.53;101695.25;7350564;19;20011;-65
2023/10/09 04:29:39;;;;;;;8.77;4.53;;;;;;;17.81;90.00;101691.97;7350646;19;20010;-64
2023/10/09 04:32:08;;;;;;;7.32;3.55;;;;;;;17.77;89.63;101688.00;7356447;19;20061;-65
2023/10/09 04:34:35;;;;;;;8.27;3.78;;;;;;;17.75;89.34;101690.84;7354339;19;20018;-65
2023/10/09 04:37:24;;;;;;;12.40;4.55;;;;;;;17.72;89.33;101693.88;7354645;19;20011;-65
2023/10/09 04:40:01;;;;;;;8.15;4.63;;;;;;;17.72;90.01;101707.19;7352648;19;20015;-65
2023/10/09 04:47:36;;;;;;;10.23;4.20;;;;;;;17.77;89.80;101677.38;7356118;19;20776;-66
2023/10/09 04:50:09;;;;;;;7.45;4.00;;;;;;;17.74;89.84;101683.84;7351052;19;20070;-66
2023/10/09 04:55:16;;;;;;;11.05;4.05;;;;;;;17.66;89.34;101697.25;7361010;19;20090;-65
2023/10/09 05:02:57;;;;;;;10.25;3.75;;;;;;;17.57;89.48;101687.63;7360315;19;20701;-66
2023/10/09 05:11:05;;;;;;;9.05;4.43;;;;;;;17.45;90.38;101694.34;7362476;19;20956;-65
2023/10/09 05:16:18;;;;;;;8.23;4.05;;;;;;;17.40;90.80;101673.59;7359397;19;20010;-65
2023/10/09 05:19:05;;;;;;;9.80;4.30;;;;;;;17.36;91.02;101677.63;7359131;19;20367;-65
2023/10/09 05:21:36;;;;;;;8.95;4.28;;;;;;;17.36;91.05;101690.94;7361693;19;20086;-65
2023/10/09 05:24:16;;;;;;;8.50;3.97;;;;;;;17.35;90.79;101705.22;7360947;19;20258;-65
2023/10/09 05:29:34;;;;;;;11.13;4.80;;;;;;;17.39;91.13;101673.78;7355239;19;20479;-65
2023/10/09 05:32:15;;;;;;;9.02;3.88;;;;;;;17.35;90.82;101685.78;7360694;19;21876;-65
2023/10/09 05:37:24;;;;;;;8.50;4.07;;;;;;;17.31;90.90;101730.53;7357236;19;20292;-66
2023/10/09 05:53:04;;;;;;;10.13;3.80;;;;;;;17.25;90.79;101695.81;7359033;19;20038;-64
2023/10/09 06:03:23;;;;;;;11.07;4.72;;;;;;;17.27;90.73;101696.47;7355662;19;20015;-66
2023/10/09 06:08:26;;;;;;;7.45;3.90;;;;;;;17.25;90.61;101722.41;7358327;19;21150;-65
2023/10/09 06:12:33;;;;;;;12.13;4.32;;;;;;;17.24;90.39;101732.22;7358053;19;20059;-65
2023/10/09 06:13:45;;;;;;;8.90;4.15;;;;;;;17.24;90.60;101728.72;7353961;19;20015;-65
2023/10/09 06:24:09;;;;;;;9.20;4.57;;;;;;;17.15;91.26;101719.13;7359766;19;20090;-65
2023/10/09 06:26:37;;;;;;;11.38;5.13;;;;;;;17.16;91.08;101711.00;7358002;19;20626;-65
2023/10/09 06:34:32;;;;;;;7.53;3.78;;;;;;;17.15;90.53;101719.13;7357055;19;20142;-67
2023/10/09 06:37:07;;;;;;;10.55;4.30;;;;;;;17.19;90.32;101731.06;7358727;19;20036;-65
2023/10/09 06:42:30;;;;;;;10.80;4.05;;;;;;;17.18;90.45;101727.59;7358975;19;20123;-66
2023/10/09 06:45:11;;;;;;;8.18;3.90;;;;;;;17.17;90.41;101701.19;7359564;19;20018;-65
2023/10/09 06:47:42;;;;;;;11.13;4.32;;;;;;;17.17;90.14;101695.88;7358667;19;20015;-65
2023/10/09 06:58:15;;;;;;;8.43;3.97;;;;;;;17.31;88.88;101735.03;7354519;19;20404;-65
2023/10/09 07:03:29;;;;;;;9.75;4.30;;;;;;;17.38;88.77;101752.75;7354671;19;20018;-65
2023/10/09 07:06:23;;;;;;;8.48;3.67;;;;;;;17.41;88.06;101757.75;7356278;19;20014;-65
2023/10/09 07:16:57;;;;;;;9.55;4.32;;;;;;;17.60;87.07;101745.03;7355004;19;20094;-64
2023/10/09 07:20:36;;;;;;;5.95;3.45;;;;;;;17.64;87.28;101738.34;7355342;19;20759;-66
2023/10/09 07:30:35;;;;;;;9.20;3.80;;;;;;;17.78;86.03;101750.88;7350715;19;20014;-65
2023/10/09 07:32:54;;;;;;;7.88;3.40;;;;;;;17.78;85.06;101756.22;7353239;19;20010;-65
2023/10/09 07:37:58;;;;;;;9.52;3.28;;;;;;;17.84;85.08;101761.66;7353211;19;20019;-66
2023/10/09 07:40:31;;;;;;;9.73;3.72;;;;;;;17.86;84.86;101762.31;7358636;19;20113;-64
2023/10/09 07:43:05;;;;;;;;;;;;;;;17.88;84.17;101754.13;7353887;19;20126;-65
2023/10/09 07:48:05;;;;;;;11.32;4.40;;;;;;;17.88;85.09;101775.44;7355530;19;20413;-65
2023/10/09 07:53:14;;;;;;;10.02;3.97;;;;;;;17.91;85.03;101772.44;7353626;19;20011;-65
2023/10/09 07:55:51;;;;;;;11.27;3.80;;;;;;;17.92;84.13;101790.09;7356432;19;21011;-64
2023/10/09 07:58:26;;;;;;;9.88;3.88;;;;;;;17.97;86.20;101811.69;7353019;19;21278;-65
2023/10/09 08:03:35;;;;;;;11.32;3.55;;;;;;;17.93;83.91;101811.19;7355764;19;20014;-65
2023/10/09 08:08:39;;;;;;;12.00;3.85;;;;;;;17.93;83.77;101797.03;7355802;19;20349;-65
2023/10/09 08:16:21;;;;;;;12.07;4.78;;;;;;;17.96;84.61;101815.34;7355931;19;20588;-65
2023/10/09 08:18:52;;;;;;;11.85;4.43;;;;;;;17.96;84.00;101810.03;7354064;19;20767;-65
2023/10/09 08:21:38;;;;;;;13.48;4.47;;;;;;;17.98;84.38;101813.31;7355635;19;20011;-65
2023/10/09 08:24:35;;;;;;;14.18;4.78;;;;;;;18.00;84.45;101797.19;7351161;19;20081;-65
2023/10/09 08:27:28;;;;;;;12.68;4.88;;;;;;;18.00;84.64;101800.66;7358463;19;20045;-65
2023/10/09 08:29:46;;;;;;;14.85;5.15;;;;;;;18.03;84.20;101788.84;7356129;19;20015;-65
2023/10/09 08:32:38;;;;;;;;;;;;;;;18.08;84.52;101797.94;7359393;19;20012;-66
2023/10/09 08:35:19;;;;;;;13.10;4.78;;;;;;;18.10;83.79;101801.25;7359662;19;20005;-65
2023/10/09 08:37:48;;;;;;;13.57;5.18;;;;;;;18.14;83.91;101794.56;7360003;19;20439;-65
2023/10/09 08:40:20;;;;;;;11.77;4.55;;;;;;;18.18;83.63;101784.41;7364361;19;20014;-66
2023/10/09 08:42:54;;;;;;;12.65;5.30;;;;;;;18.25;84.39;101794.16;7359178;19;20524;-65
2023/10/09 08:45:24;;;;;;;13.50;4.90;;;;;;;18.27;83.54;101810.81;7359946;19;20010;-65
2023/10/09 08:47:54;;;;;;;17.25;5.57;;;;;;;18.30;82.78;101809.59;7360721;19;20551;-65
2023/10/09 08:50:22;;;;;;;10.82;4.57;;;;;;;18.28;82.82;101804.47;7360661;19;20106;-65
2023/10/09 08:52:51;;;;;;;14.55;5.13;;;;;;;18.30;82.63;101809.59;7362926;19;20597;-65
2023/10/09 08:55:18;;;;;;;13.95;5.55;;;;;;;18.35;83.06;101796.56;7364479;19;20085;-66
2023/10/09 08:57:46;;;;;;;12.27;4.68;;;;;;;18.35;83.30;101800.06;7355976;19;20042;-65
2023/10/09 09:00:23;;;;;;;13.02;5.40;;;;;;;18.38;82.39;101802.38;7362995;19;20554;-65
2023/10/09 09:02:53;;;;;;;11.15;4.60;;;;;;;18.41;82.98;101792.34;7360543;19;20029;-65
2023/10/09 09:05:21;;;;;;;15.63;4.45;;;;;;;18.43;83.34;101801.00;7360291;19;20014;-66
2023/10/09 09:07:48;;;;;;;16.13;5.30;;;;;;;18.48;82.83;101802.13;7359576;19;20078;-64
2023/10/09 09:10:17;;;;;;;11.55;4.97;;;;;;;18.50;82.84;101813.41;7360603;19;20035;-67
2023/10/09 09:12:45;;;;;;;12.13;5.47;;;;;;;18.53;82.85;101822.91;7360648;19;20196;-65
2023/10/09 09:15:19;;;;;;;13.70;5.28;;;;;;;18.54;82.50;101813.94;7355951;19;20031;-66
2023/10/09 09:17:49;;;;;;;17.85;5.15;;;;;;;18.60;83.33;101803.38;7362340;19;20091;-66
2023/10/09 09:20:23;;;;;;;11.35;5.40;;;;;;;18.64;82.88;101794.00;7335924;19;20805;-65
2023/10/09 09:22:56;;;;;;;10.95;4.45;;;;;;;18.70;82.01;101813.75;7356962;19;20018;-65
2023/10/09 09:25:25;;;;;;;13.98;5.95;;;;;;;18.71;81.62;101816.25;7360606;19;21718;-66
2023/10/09 09:27:57;;;;;;;13.23;5.85;;;;;;;18.76;82.15;101811.22;7350141;19;20373;-66
2023/10/09 09:30:33;;;;;;;11.90;4.63;;;;;;;18.77;81.42;101804.03;7355720;19;20039;-66
2023/10/09 09:33:20;;;;;;;12.27;5.07;;;;;;;18.80;81.27;101801.81;7354683;19;20283;-65
2023/10/09 09:35:58;;;;;;;12.40;4.35;;;;;;;18.83;81.53;101797.16;7356137;19;20002;-66
2023/10/09 09:38:27;;;;;;;9.55;4.82;;;;;;;18.88;81.35;101795.59;7353574;19;20029;-65
2023/10/09 09:41:02;;;;;;;16.58;5.03;;;;;;;18.93;81.74;101795.03;7358152;19;20042;-66
2023/10/09 09:43:35;;;;;;;13.63;4.88;;;;;;;18.95;81.23;101795.66;7357821;19;20907;-66
2023/10/09 09:46:07;;;;;;;10.93;4.88;;;;;;;18.99;80.88;101818.31;7356883;19;20089;-66
2023/10/09 09:48:44;;;;;;;11.25;4.20;;;;;;;19.00;80.65;101809.28;7357415;19;20022;-66
2023/10/09 09:51:17;;;;;;;13.63;4.97;;;;;;;19.02;80.94;101815.28;7357106;19;20015;-65
2023/10/09 09:53:49;;;;;;;20.73;6.13;;;;;;;19.07;80.91;101820.88;7357138;19;20771;-65
2023/10/09 09:56:24;;;;;;;12.43;5.18;;;;;;;19.11;81.02;101817.66;7360218;19;20094;-66
2023/10/09 09:58:56;;;;;;;12.02;5.00;;;;;;;19.17;80.53;101808.94;7356138;19;20732;-66
2023/10/09 10:01:29;;;;;;;13.35;4.47;;;;;;;19.17;79.10;101814.28;7360836;19;20294;-65
2023/10/09 10:04:13;;;;;;;11.75;4.28;;;;;;;19.23;80.20;101791.34;7357787;19;20010;-65
2023/10/09 10:06:45;;;;;;;12.68;5.40;;;;;;;19.26;80.05;101777.63;7356056;19;20040;-66
2023/10/09 10:09:39;;;;;;;11.40;4.70;;;;;;;19.33;80.93;101791.06;7347046;19;20028;-64
2023/10/09 10:12:11;;;;;;;13.32;5.30;;;;;;;19.34;79.59;101809.56;7356445;19;20089;-65
2023/10/09 10:14:52;;;;;;;11.27;4.80;;;;;;;19.40;79.39;101818.69;7355176;19;20024;-66
2023/10/09 10:17:21;;;;;;;14.43;4.65;;;;;;;19.41;78.96;101801.63;7354093;19;20780;-65
2023/10/09 10:20:04;;;;;;;12.40;4.75;;;;;;;19.45;79.00;101803.78;7356373;19;20022;-65
2023/10/09 10:22:32;;;;;;;10.80;4.82;;;;;;;19.53;78.80;101790.31;7355776;19;20141;-65
2023/10/09 10:25:09;;;;;;;12.10;4.40;;;;;;;19.58;79.08;101798.59;7359736;19;20011;-65
2023/10/09 10:30:23;;;;;;;11.05;4.07;;;;;;;19.73;79.15;101808.41;7356849;19;20500;-66
2023/10/09 10:32:53;;;;;;;10.82;4.38;;;;;;;19.75;78.70;101801.03;7351990;19;20018;-65
2023/10/09 10:35:32;;;;;;;12.45;4.85;;;;;;;19.78;78.55;101787.31;7358053;19;20019;-64
2023/10/09 10:38:11;;;;;;;12.25;4.43;;;;;;;19.81;78.09;101795.75;7357457;19;20102;-64
2023/10/09 10:40:40;;;;;;;12.48;4.57;;;;;;;19.90;78.49;101786.63;7359007;19;20013;-66
2023/10/09 10:46:01;;;;;;;11.88;4.35;;;;;;;20.01;78.06;101782.63;7357334;19;20011;-65
2023/10/09 10:48:38;;;;;;;11.35;4.53;;;;;;;20.03;77.83;101770.72;7356830;19;20017;-65
2023/10/09 10:51:06;;;;;;;9.40;4.30;;;;;;;20.07;76.95;101771.97;7355509;19;20379;-66
2023/10/09 10:53:47;;;;;;;11.15;3.83;;;;;;;20.11;78.06;101771.59;7354697;19;20365;-64
2023/10/09 10:59:11;;;;;;;15.18;4.60;;;;;;;20.20;77.54;101767.78;7351689;19;20021;-64
2023/10/09 11:07:00;;;;;;;11.68;4.63;;;;;;;20.31;76.97;101762.78;7356803;19;20014;-66
2023/10/09 11:09:57;;;;;;;12.52;4.68;;;;;;;20.37;77.32;101759.31;7359365;19;20027;-65
2023/10/09 11:12:44;;;;;;;16.42;5.10;;;;;;;20.40;76.78;101756.25;7353702;19;20640;-65
2023/10/09 11:17:59;;;;;;;9.15;3.95;;;;;;;20.46;75.48;101773.38;7353709;19;20023;-64
2023/10/09 11:20:32;;;;;;;12.02;4.32;;;;;;;20.46;75.05;101776.88;7358821;19;20022;-65
2023/10/09 11:25:41;;;;;;;12.07;4.25;;;;;;;20.54;74.95;101773.22;7356626;19;20035;-66
2023/10/09 11:31:11;;;;;;;11.30;3.20;;;;;;;20.62;75.40;101769.59;7352805;19;20029;-65
2023/10/09 11:33:48;;;;;;;8.45;3.67;;;;;;;20.62;75.49;101767.72;7352688;19;20010;-65
2023/10/09 11:36:16;;;;;;;9.77;4.00;;;;;;;20.64;75.08;101765.69;7356579;19;20053;-65
2023/10/09 11:38:45;;;;;;;9.80;3.75;;;;;;;20.68;75.24;101758.91;7353861;19;20019;-64
2023/10/09 11:41:19;;;;;;;9.80;4.32;;;;;;;20.74;75.07;101757.28;7354886;19;20111;-65
2023/10/09 11:43:51;;;;;;;9.48;3.70;;;;;;;20.79;74.34;101755.69;7351003;19;20021;-65
2023/10/09 11:46:40;;;;;;;8.57;3.45;;;;;;;20.86;74.31;101751.22;7353278;19;21387;-66
2023/10/09 11:49:32;;;;;;;8.85;3.33;;;;;;;20.90;74.39;101757.81;7358559;19;20030;-65
2023/10/09 11:54:36;;;;;;;9.90;3.25;;;;;;;20.98;74.42;101764.03;7352372;19;20014;-64
2023/10/09 11:57:04;;;;;;;11.00;3.83;;;;;;;21.00;73.95;101753.94;7355527;19;20006;-66
2023/10/09 11:59:37;;;;;;;14.23;3.70;;;;;;;21.05;73.60;101755.00;7348161;19;20657;-65
2023/10/09 12:02:11;;;;;;;10.40;3.85;;;;;;;21.08;73.05;101751.13;7344770;19;20025;-66
2023/10/09 12:04:43;;;;;;;9.40;3.70;;;;;;;21.12;72.75;101742.50;7352873;19;20039;-65
2023/10/09 12:07:13;;;;;;;8.75;3.60;;;;;;;21.20;72.33;101752.22;7354092;19;20704;-65
2023/10/09 12:09:40;;;;;;;8.60;3.05;;;;;;;21.23;72.38;101757.97;7354340;19;20021;-65
2023/10/09 12:12:09;;;;;;;9.23;3.03;;;;;;;21.25;72.21;101747.09;7350947;19;20053;-65
2023/10/09 12:14:39;;;;;;;10.30;4.38;;;;;;;21.28;73.55;101747.50;7352291;19;20055;-65
2023/10/09 12:17:08;;;;;;;13.18;3.47;;;;;;;21.32;73.36;101739.91;7355573;19;20162;-65
2023/10/09 12:19:38;;;;;;;11.18;3.45;;;;;;;21.37;72.90;101744.66;7353242;19;20026;-65
2023/10/09 12:22:16;;;;;;;8.07;3.10;;;;;;;21.41;72.23;101733.34;7354142;19;20348;-64
2023/10/09 12:24:43;;;;;;;11.50;2.97;;;;;;;21.45;71.95;101729.22;7352608;19;20025;-66
2023/10/09 12:27:11;;;;;;;10.30;2.60;;;;;;;21.50;72.21;101732.13;7356112;19;20038;-65
2023/10/09 12:29:44;;;;;;;6.20;2.95;;;;;;;21.56;71.62;101725.97;7351392;19;20010;-65
2023/10/09 12:32:19;;;;;;;8.63;3.15;;;;;;;21.63;71.92;101721.47;7351353;19;20018;-66
2023/10/09 12:34:50;;;;;;;7.78;2.80;;;;;;;21.70;71.90;101722.28;7349420;19;20380;-65
2023/10/09 12:37:20;;;;;;;10.35;2.58;;;;;;;21.74;70.88;101711.97;7351341;19;20058;-65
2023/10/09 12:39:48;;;;;;;11.02;3.00;;;;;;;21.79;70.08;101706.03;7357723;19;21006;-66
2023/10/09 12:42:16;;;;;;;9.73;3.13;;;;;;;21.81;70.34;101704.78;7355285;19;20014;-65
2023/10/09 12:44:44;;;;;;;11.27;2.85;;;;;;;21.85;69.61;101691.78;7351084;19;20502;-65
2023/10/09 12:47:13;;;;;;;6.68;2.15;;;;;;;21.89;69.68;101693.84;7356055;19;20022;-66
2023/10/09 12:49:44;;;;;;;8.95;2.50;;;;;;;21.94;69.84;101680.66;7351463;19;20022;-65
2023/10/09 12:54:48;;;;;;;13.45;3.13;;;;;;;22.08;69.72;101671.63;7355022;19;20056;-66
2023/10/09 12:57:16;;;;;;;12.77;2.72;;;;;;;22.15;70.36;101675.09;7352406;19;20010;-66
2023/10/09 12:59:45;;;;;;;11.85;2.72;;;;;;;22.18;69.86;101674.69;7349202;19;20022;-66
2023/10/09 13:04:51;;;;;;;10.23;2.70;;;;;;;22.25;69.60;101666.63;7353382;19;20015;-66
2023/10/09 13:07:21;;;;;;;11.95;2.97;;;;;;;22.28;69.52;101660.03;7355504;19;20019;-65
2023/10/09 13:12:26;;;;;;;8.55;3.22;;;;;;;22.38;69.55;101665.78;7357587;19;20015;-66
2023/10/09 13:14:54;;;;;;;8.63;2.58;;;;;;;22.45;68.53;101670.09;7360998;19;20549;-65
2023/10/09 13:17:22;;;;;;;10.95;3.22;;;;;;;22.48;69.29;101683.09;7360599;19;20669;-65
2023/10/09 13:19:49;;;;;;;9.13;2.40;;;;;;;22.51;69.43;101682.66;7356679;19;20029;-65
2023/10/09 13:22:17;;;;;;;12.02;2.58;;;;;;;22.54;68.81;101686.81;7362680;19;20507;-65
2023/10/09 13:24:48;;;;;;;9.43;2.33;;;;;;;22.56;68.33;101696.28;7359691;19;20019;-65
2023/10/09 13:27:21;;;;;;;13.23;2.72;;;;;;;22.58;68.86;101686.16;7361544;19;20013;-65
2023/10/09 13:29:48;;;;;;;10.57;2.67;;;;;;;22.60;68.69;101678.72;7360805;19;20019;-66
2023/10/09 13:32:18;;;;;;;8.02;2.40;;;;;;;22.60;68.04;101692.13;7362351;19;20027;-65
2023/10/09 13:34:46;;;;;;;10.98;2.78;;;;;;;22.61;68.74;101688.41;7359381;19;20024;-65
2023/10/09 13:37:14;;;;;;;17.58;2.88;;;;;;;22.63;69.94;101682.84;7359457;19;20034;-65
2023/10/09 13:42:18;;;;;;;8.60;2.30;;;;;;;22.66;69.04;101671.69;7359603;19;20018;-65
2023/10/09 13:44:48;;;;;;;7.65;2.72;;;;;;;22.70;69.21;101674.78;7358870;19;20025;-66
2023/10/09 13:47:20;;;;;;;10.55;2.30;;;;;;;22.72;69.05;101670.03;7360725;19;20487;-65
2023/10/09 13:49:52;;;;;;;10.02;2.63;;;;;;;22.74;68.99;101670.66;7357355;19;20582;-65
2023/10/09 13:52:21;;;;;;;12.23;2.20;;;;;;;22.73;68.90;101669.84;7361138;19;20436;-65
2023/10/09 13:54:50;;;;;;;13.13;2.30;;;;;;;22.76;69.39;101668.59;7360269;19;20014;-66
2023/10/09 13:57:22;;;;;;;8.07;2.20;;;;;;;22.79;69.38;101674.38;7357518;19;20006;-65
2023/10/09 13:59:49;;;;;;;10.07;2.75;;;;;;;22.81;69.86;101669.59;7356630;19;20701;-66
2023/10/09 14:02:18;;;;;;;10.65;2.38;;;;;;;22.81;69.60;101674.13;7358030;19;20103;-65
2023/10/09 14:04:47;;;;;;;11.27;2.65;;;;;;;22.82;69.18;101673.94;7359875;19;20007;-66
2023/10/09 14:07:16;;;;;;;11.38;2.67;;;;;;;22.82;69.83;101659.69;7358831;19;20143;-65
2023/10/09 14:12:15;;;;;;;12.27;3.35;;;;;;;22.84;70.09;101658.44;7359840;19;20018;-65
2023/10/09 14:14:47;;;;;;;6.75;2.38;;;;;;;22.85;69.86;101657.41;7357324;19;20018;-65
2023/10/09 14:17:23;;;;;;;8.68;2.28;;;;;;;22.87;69.86;101649.97;7356503;19;20070;-66
2023/10/09 14:19:52;;;;;;;10.90;3.67;;;;;;;22.88;70.22;101651.63;7356045;19;20018;-66
2023/10/09 14:22:24;;;;;;;17.23;2.60;;;;;;;22.89;70.08;101642.53;7360414;19;20039;-65
2023/10/09 14:24:57;;;;;;;11.13;2.95;;;;;;;22.91;69.47;101651.19;7355496;19;20277;-66
2023/10/09 14:27:29;;;;;;;11.02;2.25;;;;;;;22.92;70.40;101655.50;7356637;19;20637;-66
2023/10/09 14:30:00;;;;;;;11.80;3.00;;;;;;;22.94;70.70;101648.06;7354813;19;20079;-64
2023/10/09 14:32:28;;;;;;;9.02;2.40;;;;;;;22.97;71.70;101657.56;7358470;19;20030;-65
2023/10/09 14:35:00;;;;;;;9.95;2.22;;;;;;;22.98;71.04;101656.53;7359759;19;20025;-65
2023/10/09 14:37:28;;;;;;;12.38;2.83;;;;;;;22.99;71.35;101653.63;7350772;19;20391;-66
2023/10/09 14:39:58;;;;;;;12.75;2.88;;;;;;;23.01;70.54;101654.22;7357203;19;20042;-65
2023/10/09 14:42:27;;;;;;;9.70;2.22;;;;;;;23.03;70.38;101667.44;7357441;19;20040;-66
2023/10/09 14:44:55;;;;;;;8.23;2.50;;;;;;;23.04;70.99;101658.34;7354909;19;20022;-66
2023/10/09 14:47:23;;;;;;;12.15;2.60;;;;;;;23.06;71.12;101652.78;7358992;19;20098;-66
2023/10/09 14:49:53;;;;;;;9.55;3.45;;;;;;;23.06;71.38;101650.88;7353902;19;20042;-68
2023/10/09 14:52:21;;;;;;;11.52;2.70;;;;;;;23.09;72.52;101652.34;7358188;19;20010;-65
2023/10/09 14:54:50;;;;;;;8.88;3.05;;;;;;;23.10;71.97;101641.38;7359012;19;20604;-67
2023/10/09 14:57:18;;;;;;;14.18;2.92;;;;;;;23.11;70.94;101642.22;7356216;19;20015;-65
2023/10/09 14:59:45;;;;;;;12.00;3.10;;;;;;;23.10;71.63;101633.34;7355171;19;20037;-65
2023/10/09 15:02:14;;;;;;;17.30;2.85;;;;;;;23.13;71.63;101642.81;7357588;19;20045;-65
2023/10/09 15:04:42;;;;;;;7.85;2.70;;;;;;;23.15;71.16;101638.06;7357745;19;20056;-65